Time;durP1;ratioP1;P1;durP2;ratioP2;P2;SDS_P1;SDS_P2;PMS_P1;PMS_P2;Temp;Humidity;BMP_temperature;BMP_pressure;BME280_temperature;BME280_humidity;BME280_pressure;Samples;Min_cycle;Max_cycle;Signal;HPM_P1;HPM_P2
2022/01/22 00:02:39;;;;;;;19.27;6.50;;;;;;;0.04;100.00;100911.32;5052429;58;1137207;-71
2022/01/22 00:07:45;;;;;;;19.50;6.73;;;;;;;-0.03;100.00;100914.56;5052405;58;1139037;-69
2022/01/22 00:18:06;;;;;;;14.43;5.70;;;;;;;-0.13;100.00;100926.08;5080692;57;1141051;-72
2022/01/22 00:23:12;;;;;;;10.83;5.00;;;;;;;-0.12;100.00;100926.94;5080809;57;1141221;-74
2022/01/22 00:28:18;;;;;;;13.37;6.47;;;;;;;-0.13;100.00;100928.68;5081147;57;1141399;-73
2022/01/22 00:33:23;;;;;;;10.03;4.57;;;;;;;-0.18;100.00;100933.62;5081352;57;1141385;-74
2022/01/22 00:38:29;;;;;;;9.30;4.23;;;;;;;-0.18;100.00;100942.27;5081398;57;1141050;-70
2022/01/22 00:43:35;;;;;;;11.83;4.87;;;;;;;-0.18;100.00;100937.08;5081279;57;1139326;-72
2022/01/22 00:48:41;;;;;;;11.70;4.80;;;;;;;-0.14;100.00;100936.07;5081351;57;1141128;-70
2022/01/22 00:53:46;;;;;;;11.33;5.07;;;;;;;-0.10;100.00;100937.70;5074435;57;1141122;-69
2022/01/22 00:58:52;;;;;;;19.97;7.00;;;;;;;-0.06;100.00;100953.63;5092541;57;1141472;-71
2022/01/22 01:04:01;;;;;;;13.87;6.07;;;;;;;-0.06;100.00;100951.48;5092989;57;1141386;-73
2022/01/22 01:09:09;;;;;;;14.83;5.93;;;;;;;-0.10;100.00;100954.60;5050785;58;1141168;-74
2022/01/22 01:14:22;;;;;;;11.77;5.70;;;;;;;-0.15;100.00;100957.76;5050951;58;1141387;-75
2022/01/22 01:35:37;;;;;;;12.03;6.07;;;;;;;-0.16;100.00;100970.83;5050650;58;1139713;-72
2022/01/22 01:40:44;;;;;;;15.30;6.60;;;;;;;-0.18;100.00;100964.37;5050882;58;1139362;-72
2022/01/22 01:45:49;;;;;;;22.07;8.17;;;;;;;-0.22;100.00;100964.03;5043514;57;1138933;-74
2022/01/22 01:50:58;;;;;;;18.57;7.60;;;;;;;-0.26;100.00;100974.09;5040210;58;1139126;-73
2022/01/22 01:57:24;;;;;;;10.80;5.40;;;;;;;-0.39;100.00;100972.27;5111693;57;1138974;-72
2022/01/22 02:01:13;;;;;;;7.85;3.95;;;;;;;-0.44;100.00;100975.85;5124511;57;1139119;-76
2022/01/22 02:06:19;;;;;;;9.05;4.67;;;;;;;-0.46;100.00;100969.88;5096535;57;1137104;-73
2022/01/22 02:11:27;;;;;;;9.50;4.30;;;;;;;-0.43;100.00;100976.27;5131051;57;1137229;-76
2022/01/22 02:27:44;;;;;;;5.33;3.03;;;;;;;-0.47;100.00;100974.66;5143705;57;1139206;-77
2022/01/22 02:38:36;;;;;;;8.93;5.10;;;;;;;-0.53;100.00;100991.24;5144675;57;1139058;-68
2022/01/22 02:43:32;;;;;;;15.77;7.40;;;;;;;-0.61;100.00;100999.65;5142580;57;1139082;-74
2022/01/22 02:48:38;;;;;;;14.10;5.53;;;;;;;-0.65;100.00;101008.42;5144490;57;1141168;-72
2022/01/22 02:53:44;;;;;;;25.72;7.67;;;;;;;-0.65;100.00;101008.42;5114824;57;1141179;-74
2022/01/22 02:58:52;;;;;;;23.10;7.77;;;;;;;-0.66;100.00;101009.31;5070163;57;1141622;-72
2022/01/22 03:03:58;;;;;;;26.87;12.10;;;;;;;-0.69;100.00;101013.28;5094804;57;1141174;-73
2022/01/22 03:09:08;;;;;;;30.88;12.40;;;;;;;-0.78;100.00;101014.36;5096766;58;1143231;-72
2022/01/22 03:20:20;;;;;;;14.57;4.57;;;;;;;-0.90;100.00;101032.79;5158589;56;1141158;-74
2022/01/22 03:29:50;;;;;;;15.30;5.73;;;;;;;-0.94;100.00;101051.95;5181730;56;1139030;-73
2022/01/22 03:35:01;;;;;;;22.43;7.40;;;;;;;-1.01;100.00;101051.65;5180518;56;1141189;-75
2022/01/22 03:40:05;;;;;;;16.73;5.70;;;;;;;-1.07;100.00;101065.60;5181315;57;1141104;-76
2022/01/22 03:45:13;;;;;;;8.83;3.63;;;;;;;-1.10;100.00;101072.62;5190770;56;1141313;-75
2022/01/22 03:50:21;;;;;;;19.47;5.60;;;;;;;-1.17;100.00;101079.67;5190721;57;1139025;-73
2022/01/22 03:55:46;;;;;;;16.23;5.03;;;;;;;-1.19;100.00;101085.77;5127559;57;1139048;-72
2022/01/22 04:01:05;;;;;;;39.78;15.78;;;;;;;-1.23;100.00;101097.98;5102242;57;1139093;-73
2022/01/22 04:06:21;;;;;;;42.53;14.93;;;;;;;-1.28;100.00;101115.81;5106371;57;1141357;-76
2022/01/22 04:11:15;;;;;;;21.40;7.50;;;;;;;-1.28;100.00;101121.86;5107460;57;1141152;-75
2022/01/22 04:16:15;;;;;;;15.60;5.83;;;;;;;-1.34;100.00;101137.53;5106041;57;1139015;-75
2022/01/22 04:27:06;;;;;;;7.78;3.00;;;;;;;-1.50;100.00;101153.82;5106043;58;1139037;-74
2022/01/22 04:32:05;;;;;;;10.03;4.17;;;;;;;-1.40;100.00;101166.20;5106369;57;1134889;-71
2022/01/22 04:37:11;;;;;;;7.83;3.43;;;;;;;-1.31;100.00;101168.62;5105847;58;1137240;-71
2022/01/22 04:42:18;;;;;;;6.07;3.00;;;;;;;-1.29;100.00;101190.64;5105972;58;1138360;-75
2022/01/22 04:57:46;;;;;;;14.77;6.43;;;;;;;-1.37;100.00;101214.13;5190651;57;1141313;-72
2022/01/22 05:02:51;;;;;;;15.30;5.83;;;;;;;-1.41;100.00;101220.27;5179209;56;1141028;-76
2022/01/22 05:07:59;;;;;;;21.67;6.70;;;;;;;-1.51;100.00;101225.17;5155067;56;1141788;-70
2022/01/22 05:13:07;;;;;;;13.70;6.00;;;;;;;-1.78;100.00;101232.53;5137877;56;1141155;-74
2022/01/22 05:18:12;;;;;;;9.77;5.53;;;;;;;-1.92;100.00;101230.59;5154515;56;1141092;-73
2022/01/22 05:23:22;;;;;;;9.67;4.23;;;;;;;-1.99;100.00;101239.36;5154222;56;1139258;-71
2022/01/22 05:39:33;;;;;;;6.77;2.10;;;;;;;-2.11;100.00;101249.88;5154471;56;1139287;-75
2022/01/22 05:44:41;;;;;;;9.03;3.23;;;;;;;-2.15;100.00;101257.30;5154612;56;1139101;-76
2022/01/22 05:49:47;;;;;;;4.87;2.30;;;;;;;-2.18;100.00;101259.92;5154168;56;1139065;-73
2022/01/22 05:55:11;;;;;;;4.27;2.23;;;;;;;-2.15;100.00;101263.77;5101566;57;1139076;-75
2022/01/22 06:00:05;;;;;;;17.00;4.00;;;;;;;-2.15;100.00;101269.81;5068466;57;1138984;-75
2022/01/22 06:05:13;;;;;;;9.10;4.00;;;;;;;-2.22;100.00;101277.67;5094756;56;1141110;-73
2022/01/22 06:10:26;;;;;;;7.33;3.93;;;;;;;-2.14;100.00;101284.92;5115155;57;1138940;-77
2022/01/22 06:15:27;;;;;;;5.40;2.30;;;;;;;-2.11;100.00;101288.74;5119560;57;1138995;-75
2022/01/22 06:20:35;;;;;;;4.83;2.57;;;;;;;-2.15;100.00;101299.62;5084435;57;1139070;-77
2022/01/22 06:25:41;;;;;;;2.67;1.23;;;;;;;-2.18;100.00;101303.97;5165141;56;1139042;-76
2022/01/22 06:30:47;;;;;;;5.30;2.37;;;;;;;-2.23;100.00;101309.64;5139070;57;1139533;-76
2022/01/22 06:35:54;;;;;;;8.37;3.33;;;;;;;-2.26;100.00;101320.03;5165103;56;1139060;-76
2022/01/22 06:46:31;;;;;;;10.30;3.77;;;;;;;-2.24;100.00;101345.05;5118038;57;1137032;-77
2022/01/22 06:51:50;;;;;;;13.97;3.40;;;;;;;-2.27;100.00;101357.18;5162158;56;1139015;-72
2022/01/22 06:56:56;;;;;;;12.97;3.17;;;;;;;-2.27;100.00;101366.25;5081036;57;1139095;-75
2022/01/22 07:02:04;;;;;;;7.77;3.07;;;;;;;-2.25;100.00;101377.02;5081176;57;1139294;-75
2022/01/22 07:07:12;;;;;;;2.53;1.70;;;;;;;-2.27;100.00;101390.42;5090754;57;1137137;-72
2022/01/22 07:12:19;;;;;;;5.43;3.17;;;;;;;-2.25;100.00;101404.22;5061437;57;1136981;-75
2022/01/22 07:17:25;;;;;;;5.27;1.63;;;;;;;-2.24;100.00;101407.67;5061730;57;1137088;-79
2022/01/22 07:22:37;;;;;;;4.73;2.17;;;;;;;-2.22;100.00;101424.92;5062358;57;1137058;-72
2022/01/22 07:27:42;;;;;;;8.37;2.27;;;;;;;-2.23;100.00;101434.01;5065326;58;1135177;-77
2022/01/22 07:32:48;;;;;;;5.13;1.60;;;;;;;-2.15;100.00;101436.95;5066246;57;1134848;-73
2022/01/22 07:37:54;;;;;;;3.93;2.07;;;;;;;-2.11;100.00;101448.13;5060314;57;1139559;-72
2022/01/22 07:43:00;;;;;;;3.47;1.60;;;;;;;-2.08;100.00;101450.69;5060930;57;1139049;-77
2022/01/22 07:48:24;;;;;;;5.95;2.33;;;;;;;-2.07;100.00;101454.14;5117563;56;1139038;-70
2022/01/22 07:53:45;;;;;;;10.20;3.57;;;;;;;-2.03;100.00;101457.98;5016429;58;1139027;-74
2022/01/22 07:58:52;;;;;;;7.73;3.03;;;;;;;-2.03;100.00;101457.13;4983979;58;1141239;-74
2022/01/22 08:04:00;;;;;;;10.40;4.83;;;;;;;-2.02;100.00;101455.81;4992368;58;1139016;-74
2022/01/22 08:09:22;;;;;;;9.23;3.40;;;;;;;-2.01;100.00;101467.05;4971157;58;1141107;-72
2022/01/22 08:14:32;;;;;;;13.62;4.65;;;;;;;-1.99;100.00;101473.94;4981566;58;1139110;-79
2022/01/22 08:19:38;;;;;;;26.47;6.57;;;;;;;-1.88;100.00;101479.84;4982354;58;1141366;-76
2022/01/22 08:24:46;;;;;;;21.90;6.93;;;;;;;-1.87;100.00;101491.94;4970163;58;1141343;-74
2022/01/22 08:29:52;;;;;;;8.90;4.28;;;;;;;-1.82;100.00;101497.05;5055994;57;1141197;-74
2022/01/22 08:40:21;;;;;;;;;;;;;;;-1.63;100.00;101492.08;5123875;57;1141185;-74
2022/01/22 08:45:26;;;;;;;13.30;6.80;;;;;;;-1.58;100.00;101496.78;5126098;56;976428;-76
2022/01/22 08:50:35;;;;;;;29.30;12.60;;;;;;;-1.59;100.00;101503.28;5124476;57;1139260;-75
2022/01/22 08:55:41;;;;;;;33.23;18.17;;;;;;;-1.54;100.00;101512.73;5121475;57;1143181;-74
2022/01/22 09:00:47;;;;;;;34.50;20.07;;;;;;;-1.55;100.00;101514.91;5122098;56;1143200;-75
2022/01/22 09:05:56;;;;;;;56.77;26.57;;;;;;;-1.53;100.00;101529.98;5131983;56;1143116;-71
2022/01/22 09:11:06;;;;;;;13.75;7.87;;;;;;;-1.48;100.00;101545.51;5138911;57;1143446;-71
2022/01/22 09:16:14;;;;;;;63.50;42.97;;;;;;;-1.51;100.00;101552.02;5173919;57;1141116;-72
2022/01/22 09:21:20;;;;;;;20.17;12.40;;;;;;;-1.52;100.00;101551.60;5180992;56;1143566;-71
2022/01/22 09:26:28;;;;;;;15.43;9.50;;;;;;;-1.52;100.00;101556.79;5180910;57;1143436;-72
2022/01/22 09:31:35;;;;;;;37.67;17.23;;;;;;;-1.47;100.00;101571.44;5181264;56;1139059;-72
2022/01/22 09:36:43;;;;;;;100.60;50.67;;;;;;;-1.37;100.00;101579.96;5137215;56;1141450;-71
2022/01/22 09:42:07;;;;;;;42.70;19.30;;;;;;;-1.27;100.00;101579.44;5145289;57;1143391;-71
2022/01/22 09:47:13;;;;;;;52.30;24.27;;;;;;;-1.21;100.00;101579.34;5174260;57;1141361;-74
2022/01/22 09:52:23;;;;;;;49.37;29.27;;;;;;;-1.18;100.00;101580.17;5137381;57;1140909;-74
2022/01/22 09:57:37;;;;;;;13.50;10.27;;;;;;;-1.12;100.00;101585.73;5109733;56;1141169;-73
2022/01/22 10:02:49;;;;;;;40.20;21.07;;;;;;;-1.06;100.00;101599.48;5103218;56;1141160;-71
2022/01/22 10:08:34;;;;;;;25.60;16.50;;;;;;;-1.00;100.00;101611.53;5100957;57;1141149;-73
2022/01/22 10:13:59;;;;;;;33.30;18.23;;;;;;;-0.98;100.00;101605.89;5040539;58;1143235;-71
2022/01/22 10:19:22;;;;;;;60.03;35.40;;;;;;;-0.97;100.00;101606.31;5066150;58;1143214;-73
2022/01/22 10:29:55;;;;;;;92.40;54.00;;;;;;;-0.90;100.00;101597.55;5152250;57;976400;-73
2022/01/22 10:35:16;;;;;;;50.70;28.87;;;;;;;-0.79;100.00;101593.52;5149666;57;1141395;-71
2022/01/22 10:40:42;;;;;;;19.57;8.40;;;;;;;-0.76;100.00;101594.31;5126235;57;1143432;-71
2022/01/22 10:51:25;;;;;;;18.13;7.07;;;;;;;-0.57;100.00;101591.46;5111630;57;1141049;-71
2022/01/22 10:56:34;;;;;;;19.42;7.97;;;;;;;-0.44;100.00;101604.25;5136131;57;1141166;-73
2022/01/22 11:01:51;;;;;;;15.03;6.50;;;;;;;-0.30;100.00;101604.47;5097280;57;1141400;-72
2022/01/22 11:07:00;;;;;;;7.90;4.67;;;;;;;-0.19;100.00;101607.34;5115853;57;1139062;-72
2022/01/22 11:12:07;;;;;;;9.33;4.43;;;;;;;-0.11;100.00;101606.77;5065663;57;1136979;-73
2022/01/22 11:17:14;;;;;;;9.13;4.83;;;;;;;0.03;100.00;101617.38;5112482;57;1137091;-72
2022/01/22 11:22:20;;;;;;;12.00;4.10;;;;;;;0.14;100.00;101625.88;5132580;57;1134922;-73
2022/01/22 11:27:26;;;;;;;13.67;5.77;;;;;;;0.28;100.00;101635.16;5132568;57;1137140;-71
2022/01/22 11:32:37;;;;;;;13.43;5.53;;;;;;;0.42;100.00;101640.56;5132347;57;1136982;-73
2022/01/22 11:37:52;;;;;;;27.50;11.97;;;;;;;0.57;100.00;101646.79;5128962;57;1136990;-71
2022/01/22 11:43:08;;;;;;;39.93;13.20;;;;;;;0.69;98.89;101651.77;5132460;57;1139162;-71
2022/01/22 11:48:26;;;;;;;20.90;7.17;;;;;;;0.89;98.73;101654.85;5132637;57;1137013;-71
2022/01/22 11:53:37;;;;;;;12.37;4.70;;;;;;;1.08;97.28;101647.50;5163486;56;1132851;-70
2022/01/22 11:59:04;;;;;;;17.20;5.50;;;;;;;1.30;96.83;101651.83;5238110;56;21153;-72
2022/01/22 12:04:14;;;;;;;9.30;3.10;;;;;;;1.51;96.98;101651.83;5218183;56;1132959;-71
2022/01/22 12:09:26;;;;;;;16.60;6.10;;;;;;;1.74;96.62;101654.75;5213600;56;1135078;-73
2022/01/22 12:14:57;;;;;;;22.87;8.07;;;;;;;1.88;93.37;101657.04;5077505;57;1137176;-71
2022/01/22 12:20:17;;;;;;;42.00;10.83;;;;;;;2.04;92.93;101673.59;5196939;56;1136900;-70
2022/01/22 12:25:19;;;;;;;18.80;5.77;;;;;;;2.27;93.29;101678.27;5132348;57;1139090;-73
2022/01/22 12:30:47;;;;;;;53.42;18.70;;;;;;;2.60;91.41;101688.28;5139412;57;1136963;-72
2022/01/22 12:36:00;;;;;;;53.83;27.97;;;;;;;2.77;88.84;101689.15;5116314;57;1139073;-73
2022/01/22 12:42:11;;;;;;;34.38;14.63;;;;;;;3.02;88.32;101703.73;5086389;57;1138969;-72
2022/01/22 12:46:23;;;;;;;31.00;14.50;;;;;;;3.29;86.42;101703.41;5057103;57;1139085;-73
2022/01/22 12:51:29;;;;;;;34.57;13.60;;;;;;;3.36;84.67;101705.78;4996050;58;1138921;-70
2022/01/22 12:56:51;;;;;;;42.03;16.77;;;;;;;3.67;86.16;101710.97;4958568;58;1139048;-72
2022/01/22 13:01:51;;;;;;;11.43;4.70;;;;;;;4.11;81.38;101720.55;4928506;58;1139063;-72
2022/01/22 13:06:55;;;;;;;10.87;7.40;;;;;;;3.96;81.06;101724.95;5100317;57;1136896;-70
2022/01/22 13:12:09;;;;;;;24.47;10.40;;;;;;;3.93;79.14;101724.59;5077571;57;1137232;-70
2022/01/22 13:17:16;;;;;;;25.10;15.87;;;;;;;4.33;80.73;101722.86;5089971;57;1139063;-71
2022/01/22 13:22:23;;;;;;;20.80;11.83;;;;;;;4.56;78.77;101723.43;5128900;57;1136906;-72
2022/01/22 13:27:31;;;;;;;24.20;13.90;;;;;;;4.84;79.84;101728.59;5128145;57;1136954;-71
2022/01/22 13:33:01;;;;;;;12.43;5.97;;;;;;;4.95;78.13;101730.37;5129052;57;1137222;-71
2022/01/22 13:49:00;;;;;;;9.40;6.50;;;;;;;5.44;77.68;101740.42;5129585;57;1134917;-72
2022/01/22 13:54:06;;;;;;;8.03;5.50;;;;;;;5.47;71.79;101750.35;5102418;57;1130645;-71
2022/01/22 13:59:29;;;;;;;19.73;17.50;;;;;;;5.41;69.58;101758.89;5072859;57;1134860;-71
2022/01/22 14:04:49;;;;;;;16.90;6.58;;;;;;;5.28;70.16;101758.03;5075774;57;1139062;-71
2022/01/22 14:10:00;;;;;;;9.90;5.07;;;;;;;4.90;72.27;101775.53;5120740;57;1136945;-71
2022/01/22 14:15:14;;;;;;;57.50;40.17;;;;;;;4.83;72.53;101774.91;5130125;57;1134951;-73
2022/01/22 14:20:26;;;;;;;49.07;36.87;;;;;;;4.34;71.95;101778.27;5110397;57;1139453;-73
2022/01/22 14:25:36;;;;;;;36.47;23.43;;;;;;;3.50;73.28;101787.80;5047078;58;1138912;-71
2022/01/22 14:30:48;;;;;;;16.03;9.13;;;;;;;3.22;75.10;101793.34;5114143;57;1139472;-71
2022/01/22 14:36:04;;;;;;;90.43;52.67;;;;;;;2.62;76.01;101795.33;5133698;57;1136393;-72
2022/01/22 14:46:57;;;;;;;39.73;15.97;;;;;;;1.82;78.93;101828.91;5144881;56;1139494;-77
2022/01/22 14:52:04;;;;;;;86.70;32.87;;;;;;;1.48;79.83;101829.16;5154720;56;1139091;-75
2022/01/22 14:57:13;;;;;;;44.43;20.97;;;;;;;1.21;81.05;101830.53;5133672;57;1139350;-77
2022/01/22 15:02:19;;;;;;;26.13;12.03;;;;;;;1.04;81.59;101837.34;5053913;57;1138994;-78
2022/01/22 15:07:24;;;;;;;45.80;19.50;;;;;;;0.88;82.06;101839.78;5045300;57;1139045;-78
2022/01/22 15:12:31;;;;;;;44.83;17.15;;;;;;;0.71;82.77;101838.75;5091768;57;1139098;-78
2022/01/22 15:22:54;;;;;;;62.20;24.07;;;;;;;0.47;83.56;101850.38;5090916;57;1137563;-77
2022/01/22 15:28:03;;;;;;;34.60;21.90;;;;;;;0.39;84.00;101852.25;5057382;57;1136365;-78
2022/01/22 15:33:22;;;;;;;44.00;26.03;;;;;;;0.41;84.35;101850.94;5087638;57;1137075;-78
2022/01/22 15:38:25;;;;;;;75.47;38.93;;;;;;;0.37;84.83;101843.60;5062956;57;1136976;-78
2022/01/22 15:43:31;;;;;;;89.10;27.03;;;;;;;0.47;85.45;101841.71;5064806;57;1136983;-78
2022/01/22 15:48:36;;;;;;;56.30;17.27;;;;;;;0.47;85.27;101847.78;5091964;57;1136970;-76
2022/01/22 15:53:42;;;;;;;67.60;35.80;;;;;;;0.45;84.98;101857.82;5103835;57;1136812;-78
2022/01/22 15:58:48;;;;;;;28.03;14.53;;;;;;;0.38;85.31;101868.75;5086505;57;1136945;-78
2022/01/22 16:03:57;;;;;;;47.93;20.60;;;;;;;0.31;85.05;101879.66;5059033;57;1136706;-75
2022/01/22 16:09:02;;;;;;;96.95;73.62;;;;;;;0.20;85.12;101885.91;5058925;57;1136965;-74
2022/01/22 16:14:09;;;;;;;28.97;11.33;;;;;;;0.14;85.42;101889.47;5052367;57;1137169;-75
2022/01/22 16:19:17;;;;;;;21.40;8.37;;;;;;;0.02;85.32;101901.73;5050555;57;1136959;-76
2022/01/22 16:24:22;;;;;;;22.30;8.27;;;;;;;-0.07;85.75;101900.98;5050509;58;1134855;-76
2022/01/22 16:29:28;;;;;;;32.77;9.83;;;;;;;-0.11;85.89;101907.09;5063703;57;1135400;-73
2022/01/22 16:34:44;;;;;;;48.83;13.47;;;;;;;-0.17;86.02;101909.78;5074598;57;1134837;-77
2022/01/22 16:39:48;;;;;;;25.93;9.83;;;;;;;-0.23;86.08;101911.56;5098388;56;1141159;-74
2022/01/22 17:00:46;;;;;;;24.63;10.40;;;;;;;-0.52;87.08;101931.36;5073620;57;1141054;-75
2022/01/22 17:05:48;;;;;;;58.80;25.30;;;;;;;-0.50;87.40;101925.72;5050232;57;1141409;-76
2022/01/22 17:11:13;;;;;;;173.77;89.70;;;;;;;-0.46;87.58;101935.21;5085076;57;1141611;-76
2022/01/22 17:16:16;;;;;;;54.30;29.37;;;;;;;-0.49;87.67;101928.30;5058457;58;1143342;-77
2022/01/22 17:21:23;;;;;;;37.57;17.70;;;;;;;-0.48;87.98;101931.33;5080642;57;1141033;-75
2022/01/22 17:26:29;;;;;;;51.57;21.13;;;;;;;-0.49;87.97;101933.94;5119470;57;1141234;-75
2022/01/22 17:31:35;;;;;;;61.85;23.25;;;;;;;-0.49;88.20;101944.33;5141602;57;1141149;-73
2022/01/22 17:36:41;;;;;;;56.70;21.27;;;;;;;-0.50;88.32;101936.11;5141640;57;1141152;-76
2022/01/22 17:41:50;;;;;;;74.93;24.67;;;;;;;-0.51;88.60;101931.78;5141906;57;1141135;-75
2022/01/22 17:46:56;;;;;;;60.20;19.77;;;;;;;-0.53;88.74;101928.34;5141592;57;1141141;-76
2022/01/22 17:52:02;;;;;;;51.97;18.40;;;;;;;-0.55;88.97;101926.19;5132270;57;1141146;-75
2022/01/22 17:57:08;;;;;;;132.87;40.00;;;;;;;-0.58;89.07;101927.07;5044781;57;1141351;-77
2022/01/22 18:02:15;;;;;;;182.87;55.03;;;;;;;-0.60;89.37;101926.66;5045936;57;1143179;-76
2022/01/22 18:07:20;;;;;;;99.33;35.20;;;;;;;-0.59;89.54;101933.14;5046178;58;1143212;-76
2022/01/22 18:12:27;;;;;;;167.63;55.83;;;;;;;-0.55;89.89;101924.89;5047617;57;1141584;-73
2022/01/22 18:17:33;;;;;;;111.00;38.33;;;;;;;-0.50;89.94;101912.28;5060147;57;1143489;-76
2022/01/22 18:22:39;;;;;;;80.77;31.40;;;;;;;-0.48;90.01;101917.47;5072172;57;1143190;-75
2022/01/22 18:27:44;;;;;;;73.10;27.60;;;;;;;-0.41;90.26;101931.67;5072344;58;1141604;-76
2022/01/22 18:32:50;;;;;;;78.67;31.47;;;;;;;-0.44;89.85;101933.44;5072192;57;1141233;-74
2022/01/22 18:37:56;;;;;;;63.47;29.13;;;;;;;-0.48;89.91;101938.26;5072048;58;1141174;-74
2022/01/22 18:43:02;;;;;;;79.97;29.20;;;;;;;-0.44;90.17;101936.89;5070503;57;1141353;-75
2022/01/22 18:48:08;;;;;;;151.23;48.87;;;;;;;-0.36;90.71;101940.73;5061127;57;1141313;-73
2022/01/22 18:53:18;;;;;;;109.80;38.97;;;;;;;-0.27;90.59;101934.13;5085651;57;1143260;-75
2022/01/22 18:58:22;;;;;;;73.83;28.00;;;;;;;-0.33;90.01;101916.45;5144127;57;1143152;-76
2022/01/22 19:03:28;;;;;;;75.07;27.43;;;;;;;-0.43;89.77;101930.82;5143679;57;1141249;-74
2022/01/22 19:08:35;;;;;;;47.27;15.43;;;;;;;-0.50;89.98;101929.17;5142754;57;1139091;-76
2022/01/22 19:13:41;;;;;;;60.70;23.60;;;;;;;-0.51;90.13;101934.38;5140856;57;1139003;-73
2022/01/22 19:18:47;;;;;;;67.30;25.13;;;;;;;-0.43;90.97;101939.92;5130458;57;1139558;-76
2022/01/22 19:24:04;;;;;;;42.00;16.03;;;;;;;-0.28;91.49;101944.10;5130818;57;1139402;-72
2022/01/22 19:29:01;;;;;;;72.07;27.47;;;;;;;-0.31;90.62;101938.09;5139217;57;1139289;-74
2022/01/22 19:34:07;;;;;;;62.17;23.93;;;;;;;-0.26;91.19;101938.89;5144833;57;1138877;-75
2022/01/22 19:39:12;;;;;;;34.23;14.07;;;;;;;-0.20;91.43;101946.64;5145823;57;1139055;-75
2022/01/22 19:44:22;;;;;;;67.30;24.00;;;;;;;-0.25;90.78;101947.11;5145524;57;1139034;-74
2022/01/22 19:49:26;;;;;;;51.13;17.47;;;;;;;-0.26;90.93;101946.25;5145437;57;1139056;-76
2022/01/22 19:54:31;;;;;;;47.73;15.10;;;;;;;-0.27;90.69;101944.96;5103810;57;1138925;-76
2022/01/22 19:59:37;;;;;;;53.92;20.43;;;;;;;-0.45;89.84;101940.80;5070721;57;1139071;-73
2022/01/22 20:04:46;;;;;;;80.37;25.33;;;;;;;-0.51;90.69;101939.58;5070660;57;1139051;-73
2022/01/22 20:09:51;;;;;;;207.60;56.83;;;;;;;-0.45;91.39;101940.80;5070692;57;1139063;-75
2022/01/22 20:14:57;;;;;;;391.67;106.47;;;;;;;-0.39;91.41;101935.13;5092548;57;1141234;-74
2022/01/22 20:20:08;;;;;;;171.67;50.57;;;;;;;-0.38;91.41;101937.28;5128007;56;1143181;-73
2022/01/22 20:25:16;;;;;;;146.33;47.43;;;;;;;-0.37;91.45;101943.77;5125016;56;1141511;-76
2022/01/22 20:30:22;;;;;;;147.00;44.77;;;;;;;-0.45;90.95;101955.09;5118137;57;1139094;-78
2022/01/22 20:35:29;;;;;;;130.10;44.50;;;;;;;-0.52;90.81;101954.31;5147583;57;21166;-79
2022/01/22 20:40:35;;;;;;;147.77;48.17;;;;;;;-0.54;91.20;101952.16;5104249;57;1139042;-77
2022/01/22 20:45:41;;;;;;;335.07;100.73;;;;;;;-0.55;91.26;101956.93;5081573;57;1143199;-75
2022/01/22 20:50:47;;;;;;;370.97;98.07;;;;;;;-0.60;90.90;101955.23;5081414;57;1145481;-77
2022/01/22 20:55:53;;;;;;;317.27;89.20;;;;;;;-0.82;90.26;101962.36;5142450;56;1143122;-76
2022/01/22 21:01:00;;;;;;;247.03;76.87;;;;;;;-0.87;91.40;101947.23;5155406;56;1143191;-76
2022/01/22 21:06:06;;;;;;;256.17;79.60;;;;;;;-0.80;91.84;101949.80;5120460;56;1143240;-73
2022/01/22 21:11:14;;;;;;;187.37;56.73;;;;;;;-0.80;91.31;101945.03;5124965;57;1143346;-78
2022/01/22 21:16:21;;;;;;;161.60;45.90;;;;;;;-1.06;90.75;101946.06;5129377;57;1143503;-74
2022/01/22 21:21:27;;;;;;;178.90;47.43;;;;;;;-1.25;90.99;101955.31;5148086;57;1143449;-76
2022/01/22 21:26:33;;;;;;;231.80;59.37;;;;;;;-1.39;91.32;101955.39;5147809;57;1143216;-72
2022/01/22 21:31:39;;;;;;;77.37;27.23;;;;;;;-1.44;91.69;101973.57;5152302;57;1143224;-74
2022/01/22 21:37:08;;;;;;;69.10;23.20;;;;;;;-1.44;92.06;101972.70;5146498;56;1141035;-75
2022/01/22 21:41:53;;;;;;;88.07;28.40;;;;;;;-1.42;92.42;101982.65;5147429;57;1141140;-75
2022/01/22 21:46:59;;;;;;;155.25;36.95;;;;;;;-1.40;92.47;101978.75;5146037;57;1141132;-73
2022/01/22 21:52:06;;;;;;;184.73;42.50;;;;;;;-1.43;92.58;101973.13;5152898;57;1143216;-72
2022/01/22 21:57:12;;;;;;;316.03;91.00;;;;;;;-1.38;93.05;101983.06;5030823;58;1143183;-73
2022/01/22 22:02:18;;;;;;;72.57;27.03;;;;;;;-1.23;93.69;101970.01;5108398;57;1143222;-74
2022/01/22 22:07:25;;;;;;;68.63;33.90;;;;;;;-1.15;93.88;101970.80;5136209;57;1141096;-79
2022/01/22 22:12:30;;;;;;;135.70;70.30;;;;;;;-1.02;94.15;101978.08;5148382;57;1141203;-72
2022/01/22 22:17:36;;;;;;;88.77;36.47;;;;;;;-0.97;93.71;101978.91;5143145;57;1143198;-74
2022/01/22 22:22:42;;;;;;;74.53;28.67;;;;;;;-0.98;93.56;101983.68;5169168;57;1141122;-75
2022/01/22 22:27:49;;;;;;;66.37;30.07;;;;;;;-0.90;94.31;101987.51;5162202;56;1141238;-74
2022/01/22 22:32:56;;;;;;;71.27;24.57;;;;;;;-0.99;93.20;101997.97;5154498;57;1141106;-74
2022/01/22 22:38:02;;;;;;;80.87;31.93;;;;;;;-1.08;93.33;101988.52;5190945;57;1141405;-75
2022/01/22 22:43:08;;;;;;;153.67;52.17;;;;;;;-1.06;93.88;101999.73;5161289;56;1141105;-75
2022/01/22 22:48:14;;;;;;;135.20;44.77;;;;;;;-1.00;94.10;102002.30;5134635;57;1143266;-72
2022/01/22 22:53:19;;;;;;;120.83;41.30;;;;;;;-0.96;94.24;101996.22;5170768;56;1143209;-70
2022/01/22 22:58:25;;;;;;;116.30;38.40;;;;;;;-0.92;94.26;101994.05;5124450;57;1143259;-78
2022/01/22 23:03:34;;;;;;;119.53;40.70;;;;;;;-0.87;94.27;101993.98;5118903;57;1143273;-72
2022/01/22 23:08:39;;;;;;;103.05;34.88;;;;;;;-0.88;94.27;101989.66;5168976;57;1143665;-72
2022/01/22 23:13:56;;;;;;;84.70;31.90;;;;;;;-0.88;94.23;101974.95;5111426;56;1143420;-75
2022/01/22 23:29:38;;;;;;;97.47;34.43;;;;;;;-0.83;94.29;101967.99;5106414;57;1139180;-75
2022/01/22 23:34:57;;;;;;;95.30;30.80;;;;;;;-0.98;93.91;101964.64;5106019;57;1139289;-74
2022/01/22 23:56:19;;;;;;;;;;;;;;;-1.19;95.49;101992.89;5182678;57;1136963;-75
